Tuesday, February 20, 2018, 10:29 AM EST
Back to Local

KTTN, Trenton Mercer County Airport

Location: Trenton, NJ, United States Lat: 40.283
Local Time: 10:29 AM EST (15:29 GMT) Lon: -74.817
Time Zone: US/Eastern Elev: 213 ft

Show me the last for .
Show Decoded

2018-02-20 09:53 METAR KTTN 201453Z 22007KT 7SM OVC005 12/12 A3036 RMK AO2 SLP275 T01220117 51006
                 =
2018-02-20 09:51 METAR KTTN 201451Z 23006KT 7SM OVC005 12/12 A3036 RMK AO2 =
2018-02-20 09:01 METAR KTTN 201401Z 23007KT 4SM BR OVC003 12/11 A3035 RMK AO2 T01170111 =
2018-02-20 08:53 METAR KTTN 201353Z 23007KT 2 1/2SM BR OVC003 12/11 A3035 RMK AO2 SLP271
                 T01170111 =
2018-02-20 08:43 METAR KTTN 201343Z 22007KT 2SM BR OVC002 12/11 A3035 RMK AO2 T01170111 =
2018-02-20 07:53 METAR KTTN 201253Z 23006KT 1SM BR OVC002 11/11 A3034 RMK AO2 SLP268 T01110111 =
2018-02-20 07:25 METAR KTTN 201225Z 22010KT 1 1/2SM BR OVC003 11/11 A3034 RMK AO2 T01110106 =
2018-02-20 07:13 METAR KTTN 201213Z 23008KT 2SM BR OVC003 11/11 A3034 RMK AO2 T01110106 =
2018-02-20 06:53 METAR KTTN 201153Z 23006KT 4SM BR OVC003 11/11 A3034 RMK AO2 SLP267 70004
                 T01110106 10111 20083 51012 =
2018-02-20 06:13 METAR KTTN 201113Z 22011G17KT 3SM BR OVC002 11/11 A3032 RMK AO2 T01110106 =
2018-02-20 05:53 METAR KTTN 201053Z 23007KT 1SM BR OVC002 11/11 A3032 RMK AO2 SLP261 T01110106 =
2018-02-20 05:51 METAR KTTN 201051Z 22007KT 1SM BR OVC002 11/11 A3032 RMK AO2 =
2018-02-20 04:53 METAR KTTN 200953Z AUTO 24007KT 3/4SM BR VV002 11/11 A3030 RMK AO2 SLP254
                 T01060106 =
2018-02-20 04:26 METAR KTTN 200926Z AUTO 23006KT 1 1/4SM BR OVC002 11/10 A3029 RMK AO2 T01060100
                 =
2018-02-20 03:53 METAR KTTN 200853Z AUTO 22009KT 2 1/2SM BR OVC003 11/10 A3030 RMK AO2 SLP254
                 T01060100 56006 =
2018-02-20 02:53 METAR KTTN 200753Z AUTO 24007KT 3SM BR OVC002 11/10 A3030 RMK AO2 SLP256
                 T01060100 =
2018-02-20 02:27 METAR KTTN 200727Z AUTO 23006KT 2 1/2SM BR OVC003 10/10 A3031 RMK AO2 T01000100
                 =
2018-02-20 02:09 METAR KTTN 200709Z AUTO 23005KT 4SM BR OVC004 10/10 A3031 RMK AO2 T01000100 =
2018-02-20 01:53 METAR KTTN 200653Z AUTO 23008KT 5SM BR OVC005 10/09 A3031 RMK AO2 SLP258
                 T01000094 =
2018-02-20 01:29 METAR KTTN 200629Z AUTO 23007KT 4SM BR OVC005 10/09 A3031 RMK AO2 T01000094 =
2018-02-20 01:22 METAR KTTN 200622Z AUTO 23004KT 3SM BR OVC003 10/09 A3032 RMK AO2 T01000094 =
2018-02-20 01:10 METAR KTTN 200610Z AUTO 23005KT 2SM BR OVC003 09/09 A3032 RMK AO2 T00940089 =
2018-02-20 00:53 METAR KTTN 200553Z AUTO 25003KT 1/4SM FG VV002 08/08 A3032 RMK AO2 SLP262 60001
                 T00830083 10083 20072 55004 =
2018-02-19 23:53 METAR KTTN 200453Z AUTO 00000KT 1/4SM FG VV002 08/08 A3031 RMK AO2 SLP261
                 T00830078 400941017 =
2018-02-19 22:53 METAR KTTN 200353Z AUTO 00000KT 1/2SM FG VV003 07/07 A3033 RMK AO2 RAB18E34
                 SLP265 P0001 T00720072 =
2018-02-19 21:53 METAR KTTN 200253Z 00000KT 3/4SM BR OVC003 08/07 A3033 RMK AO2 RAB26E38 SLP266
                 P0000 60000 T00780067 56008 =
2018-02-19 21:17 METAR KTTN 200217Z 00000KT 3/4SM BR OVC004 07/07 A3034 RMK AO2 T00720072 =
2018-02-19 20:53 METAR KTTN 200153Z 00000KT 1 1/4SM BR OVC004 07/07 A3033 RMK AO2 SLP267
                 T00720072 =
2018-02-19 20:20 METAR KTTN 200120Z 00000KT 1 3/4SM BR OVC008 08/07 A3034 RMK AO2 T00780072 =
2018-02-19 20:12 METAR KTTN 200112Z 00000KT 2SM BR OVC009 08/07 A3034 RMK AO2 T00780067 =
2018-02-19 20:04 METAR KTTN 200104Z 00000KT 3SM BR OVC009 08/07 A3034 RMK AO2 T00780072 =
2018-02-19 19:53 METAR KTTN 200053Z 00000KT 4SM BR OVC011 08/07 A3035 RMK AO2 SLP271 T00780067 =
2018-02-19 18:53 METAR KTTN 192353Z 00000KT 4SM BR OVC014 08/07 A3035 RMK AO2 SLP274 60003
                 T00780067 10094 20078 55007 =
2018-02-19 17:53 METAR KTTN 192253Z 35003KT 4SM BR OVC015 08/07 A3035 RMK AO2 RAE2155 SLP273
                 P0000 T00780067 =
2018-02-19 17:46 METAR KTTN 192246Z 00000KT 6SM BR OVC015 08/07 A3035 RMK AO2 RAE2155 P0000
                 T00830067 =
2018-02-19 16:53 METAR KTTN 192153Z 00000KT 5SM -RA BR OVC010 08/07 A3036 RMK AO2 SLP275 P0003
                 T00780072 =
2018-02-19 15:53 METAR KTTN 192053Z 24003KT 5SM -RA OVC013 09/06 A3037 RMK AO2 RAB40 SLP281 P0000
                 60000 T00890056 56015 =
2018-02-19 15:37 METAR KTTN 192037Z 25003KT 10SM OVC014 09/05 A3037 RMK AO2 T00890050 =
2018-02-19 14:53 METAR KTTN 191953Z 21007KT 10SM OVC017 09/04 A3038 RMK AO2 SLP282 T00940044 =
2018-02-19 13:53 METAR KTTN 191853Z 21007KT 10SM OVC025 09/03 A3038 RMK AO2 SLP284 T00940028 =
2018-02-19 13:08 METAR KTTN 191808Z 23005KT 10SM OVC029 09/02 A3041 RMK AO2 T00940022 =
2018-02-19 12:53 METAR KTTN 191753Z 23005KT 10SM BKN030 OVC036 09/03 A3042 RMK AO2 SLP296
                 T00940028 10094 20000 58020 =
2018-02-19 11:53 METAR KTTN 191653Z 19008KT 10SM OVC047 08/03 A3045 RMK AO2 SLP306 T00830028 =
2018-02-19 10:53 METAR KTTN 191553Z 20007KT 10SM OVC049 08/03 A3049 RMK AO2 SLP321 T00780033 =

Support USWX by starting your Amazon purchase here.